sensor_id;sensor_type;location;lat;lon;timestamp;temperature;humidity
18581;DHT22;9420;50.876;7.012;2023-07-31T00:02:17;17.52;82.47
18581;DHT22;9420;50.876;7.012;2023-07-31T00:04:44;17.51;82.67
18581;DHT22;9420;50.876;7.012;2023-07-31T00:07:12;17.55;82.50
18581;DHT22;9420;50.876;7.012;2023-07-31T00:09:39;17.56;82.10
18581;DHT22;9420;50.876;7.012;2023-07-31T00:12:06;17.49;83.16
18581;DHT22;9420;50.876;7.012;2023-07-31T00:14:33;17.55;82.34
18581;DHT22;9420;50.876;7.012;2023-07-31T00:16:59;17.56;82.51
18581;DHT22;9420;50.876;7.012;2023-07-31T00:19:26;17.62;82.37
18581;DHT22;9420;50.876;7.012;2023-07-31T00:21:53;17.58;82.61
18581;DHT22;9420;50.876;7.012;2023-07-31T00:24:21;17.54;82.56
18581;DHT22;9420;50.876;7.012;2023-07-31T00:26:47;17.54;82.58
18581;DHT22;9420;50.876;7.012;2023-07-31T00:29:14;17.54;82.80
18581;DHT22;9420;50.876;7.012;2023-07-31T00:31:40;17.85;80.35
18581;DHT22;9420;50.876;7.012;2023-07-31T00:34:07;17.82;80.86
18581;DHT22;9420;50.876;7.012;2023-07-31T00:36:33;17.86;80.42
18581;DHT22;9420;50.876;7.012;2023-07-31T00:39:00;17.85;80.47
18581;DHT22;9420;50.876;7.012;2023-07-31T00:41:28;17.79;81.33
18581;DHT22;9420;50.876;7.012;2023-07-31T00:43:55;17.82;80.18
18581;DHT22;9420;50.876;7.012;2023-07-31T00:46:21;17.82;80.19
18581;DHT22;9420;50.876;7.012;2023-07-31T00:48:48;17.83;79.83
18581;DHT22;9420;50.876;7.012;2023-07-31T00:51:15;17.90;79.68
18581;DHT22;9420;50.876;7.012;2023-07-31T00:53:42;17.89;79.35
18581;DHT22;9420;50.876;7.012;2023-07-31T00:56:09;17.90;79.61
18581;DHT22;9420;50.876;7.012;2023-07-31T00:58:38;17.87;79.55
18581;DHT22;9420;50.876;7.012;2023-07-31T01:01:05;17.76;80.30
18581;DHT22;9420;50.876;7.012;2023-07-31T01:03:32;17.90;79.29
18581;DHT22;9420;50.876;7.012;2023-07-31T01:06:09;17.83;79.92
18581;DHT22;9420;50.876;7.012;2023-07-31T01:08:42;17.89;79.30
18581;DHT22;9420;50.876;7.012;2023-07-31T01:11:15;17.82;79.68
18581;DHT22;9420;50.876;7.012;2023-07-31T01:13:44;17.85;79.73
18581;DHT22;9420;50.876;7.012;2023-07-31T01:16:11;17.89;79.61
18581;DHT22;9420;50.876;7.012;2023-07-31T01:18:37;17.93;78.89
18581;DHT22;9420;50.876;7.012;2023-07-31T01:21:19;17.92;79.07
18581;DHT22;9420;50.876;7.012;2023-07-31T01:24:08;17.90;79.20
18581;DHT22;9420;50.876;7.012;2023-07-31T01:26:39;17.90;79.06
18581;DHT22;9420;50.876;7.012;2023-07-31T01:29:11;17.81;79.48
18581;DHT22;9420;50.876;7.012;2023-07-31T01:31:47;17.83;79.47
18581;DHT22;9420;50.876;7.012;2023-07-31T01:34:16;17.79;79.98
18581;DHT22;9420;50.876;7.012;2023-07-31T01:36:44;17.85;79.70
18581;DHT22;9420;50.876;7.012;2023-07-31T01:39:10;17.89;79.49
18581;DHT22;9420;50.876;7.012;2023-07-31T01:41:38;17.86;79.42
18581;DHT22;9420;50.876;7.012;2023-07-31T01:44:06;17.89;79.34
18581;DHT22;9420;50.876;7.012;2023-07-31T01:46:32;17.97;78.67
18581;DHT22;9420;50.876;7.012;2023-07-31T01:48:59;17.94;78.89
18581;DHT22;9420;50.876;7.012;2023-07-31T01:51:25;17.92;79.32
18581;DHT22;9420;50.876;7.012;2023-07-31T01:53:52;17.99;78.67
18581;DHT22;9420;50.876;7.012;2023-07-31T01:56:18;18.02;78.70
18581;DHT22;9420;50.876;7.012;2023-07-31T01:58:46;17.99;79.43
18581;DHT22;9420;50.876;7.012;2023-07-31T02:01:13;18.03;78.96
18581;DHT22;9420;50.876;7.012;2023-07-31T02:03:40;18.04;78.86
18581;DHT22;9420;50.876;7.012;2023-07-31T02:06:07;18.16;78.30
18581;DHT22;9420;50.876;7.012;2023-07-31T02:08:34;18.21;77.73
18581;DHT22;9420;50.876;7.012;2023-07-31T02:11:00;18.31;77.31
18581;DHT22;9420;50.876;7.012;2023-07-31T02:13:27;18.21;78.08
18581;DHT22;9420;50.876;7.012;2023-07-31T02:15:55;18.17;78.27
18581;DHT22;9420;50.876;7.012;2023-07-31T02:18:21;18.23;77.96
18581;DHT22;9420;50.876;7.012;2023-07-31T02:20:49;18.23;78.10
18581;DHT22;9420;50.876;7.012;2023-07-31T02:23:16;18.17;78.12
18581;DHT22;9420;50.876;7.012;2023-07-31T02:25:42;18.23;77.65
18581;DHT22;9420;50.876;7.012;2023-07-31T02:28:09;18.29;77.10
18581;DHT22;9420;50.876;7.012;2023-07-31T02:30:36;18.27;77.61
18581;DHT22;9420;50.876;7.012;2023-07-31T02:33:04;18.20;77.77
18581;DHT22;9420;50.876;7.012;2023-07-31T02:35:31;18.14;78.19
18581;DHT22;9420;50.876;7.012;2023-07-31T02:37:57;18.17;77.80
18581;DHT22;9420;50.876;7.012;2023-07-31T02:40:24;18.18;77.63
18581;DHT22;9420;50.876;7.012;2023-07-31T02:42:50;18.18;77.69
18581;DHT22;9420;50.876;7.012;2023-07-31T02:45:17;18.23;77.22
18581;DHT22;9420;50.876;7.012;2023-07-31T02:47:44;18.24;77.20
18581;DHT22;9420;50.876;7.012;2023-07-31T02:50:12;18.30;77.06
18581;DHT22;9420;50.876;7.012;2023-07-31T02:52:38;18.34;76.47
18581;DHT22;9420;50.876;7.012;2023-07-31T02:55:06;18.30;76.92
18581;DHT22;9420;50.876;7.012;2023-07-31T02:57:32;18.40;76.11
18581;DHT22;9420;50.876;7.012;2023-07-31T02:59:59;18.37;76.55
18581;DHT22;9420;50.876;7.012;2023-07-31T03:02:25;18.38;76.20
18581;DHT22;9420;50.876;7.012;2023-07-31T03:04:52;18.33;76.53
18581;DHT22;9420;50.876;7.012;2023-07-31T03:07:20;18.37;76.51
18581;DHT22;9420;50.876;7.012;2023-07-31T03:09:47;18.30;76.82
18581;DHT22;9420;50.876;7.012;2023-07-31T03:12:13;18.38;76.51
18581;DHT22;9420;50.876;7.012;2023-07-31T03:14:40;18.33;76.72
18581;DHT22;9420;50.876;7.012;2023-07-31T03:17:07;18.36;76.54
18581;DHT22;9420;50.876;7.012;2023-07-31T03:19:34;18.33;77.01
18581;DHT22;9420;50.876;7.012;2023-07-31T03:22:00;18.37;76.82
18581;DHT22;9420;50.876;7.012;2023-07-31T03:24:29;18.44;76.39
18581;DHT22;9420;50.876;7.012;2023-07-31T03:26:56;18.37;76.99
18581;DHT22;9420;50.876;7.012;2023-07-31T03:29:22;18.45;76.19
18581;DHT22;9420;50.876;7.012;2023-07-31T03:31:49;18.48;76.45
18581;DHT22;9420;50.876;7.012;2023-07-31T03:34:16;18.45;76.66
18581;DHT22;9420;50.876;7.012;2023-07-31T03:36:43;18.55;76.09
18581;DHT22;9420;50.876;7.012;2023-07-31T03:39:10;18.52;75.94
18581;DHT22;9420;50.876;7.012;2023-07-31T03:41:38;18.48;76.48
18581;DHT22;9420;50.876;7.012;2023-07-31T03:44:04;18.38;76.91
18581;DHT22;9420;50.876;7.012;2023-07-31T03:46:31;18.47;75.85
18581;DHT22;9420;50.876;7.012;2023-07-31T03:48:59;18.37;76.97
18581;DHT22;9420;50.876;7.012;2023-07-31T03:51:27;18.43;76.06
18581;DHT22;9420;50.876;7.012;2023-07-31T03:53:53;18.37;76.43
18581;DHT22;9420;50.876;7.012;2023-07-31T03:56:20;18.44;76.19
18581;DHT22;9420;50.876;7.012;2023-07-31T03:58:49;18.50;76.11
18581;DHT22;9420;50.876;7.012;2023-07-31T04:01:15;18.43;76.19
18581;DHT22;9420;50.876;7.012;2023-07-31T04:03:43;18.41;76.39
18581;DHT22;9420;50.876;7.012;2023-07-31T04:06:09;18.38;76.20
18581;DHT22;9420;50.876;7.012;2023-07-31T04:08:36;18.38;76.36
18581;DHT22;9420;50.876;7.012;2023-07-31T04:11:03;18.47;75.87
18581;DHT22;9420;50.876;7.012;2023-07-31T04:13:30;18.43;76.18
18581;DHT22;9420;50.876;7.012;2023-07-31T04:15:58;18.38;76.51
18581;DHT22;9420;50.876;7.012;2023-07-31T04:18:25;18.41;76.45
18581;DHT22;9420;50.876;7.012;2023-07-31T04:20:52;18.34;76.78
18581;DHT22;9420;50.876;7.012;2023-07-31T04:23:18;18.45;76.10
18581;DHT22;9420;50.876;7.012;2023-07-31T04:25:45;18.55;75.70
18581;DHT22;9420;50.876;7.012;2023-07-31T04:28:11;18.47;76.13
18581;DHT22;9420;50.876;7.012;2023-07-31T04:30:38;18.52;75.80
18581;DHT22;9420;50.876;7.012;2023-07-31T04:33:09;18.55;75.81
18581;DHT22;9420;50.876;7.012;2023-07-31T04:35:35;18.61;75.46
18581;DHT22;9420;50.876;7.012;2023-07-31T04:38:02;18.67;75.42
18581;DHT22;9420;50.876;7.012;2023-07-31T04:40:28;18.81;74.56
18581;DHT22;9420;50.876;7.012;2023-07-31T04:42:55;18.75;74.87
18581;DHT22;9420;50.876;7.012;2023-07-31T04:45:22;18.81;74.41
18581;DHT22;9420;50.876;7.012;2023-07-31T04:47:48;18.79;74.43
18581;DHT22;9420;50.876;7.012;2023-07-31T04:50:16;18.87;74.19
18581;DHT22;9420;50.876;7.012;2023-07-31T04:52:43;18.85;74.54
18581;DHT22;9420;50.876;7.012;2023-07-31T04:55:09;18.81;74.90
18581;DHT22;9420;50.876;7.012;2023-07-31T04:57:36;18.84;74.84
18581;DHT22;9420;50.876;7.012;2023-07-31T05:00:03;18.96;74.30
18581;DHT22;9420;50.876;7.012;2023-07-31T05:02:30;18.92;74.87
18581;DHT22;9420;50.876;7.012;2023-07-31T05:04:56;18.92;74.82
18581;DHT22;9420;50.876;7.012;2023-07-31T05:07:25;18.96;74.51
18581;DHT22;9420;50.876;7.012;2023-07-31T05:09:51;18.84;76.20
18581;DHT22;9420;50.876;7.012;2023-07-31T05:12:18;19.02;74.68
18581;DHT22;9420;50.876;7.012;2023-07-31T05:14:44;19.02;74.53
18581;DHT22;9420;50.876;7.012;2023-07-31T05:17:11;19.12;74.58
18581;DHT22;9420;50.876;7.012;2023-07-31T05:19:37;19.02;76.02
18581;DHT22;9420;50.876;7.012;2023-07-31T05:22:04;18.95;76.02
18581;DHT22;9420;50.876;7.012;2023-07-31T05:24:32;18.92;76.92
18581;DHT22;9420;50.876;7.012;2023-07-31T05:26:59;19.00;75.76
18581;DHT22;9420;50.876;7.012;2023-07-31T05:29:26;18.92;76.36
18581;DHT22;9420;50.876;7.012;2023-07-31T05:31:53;18.92;75.59
18581;DHT22;9420;50.876;7.012;2023-07-31T05:34:19;18.91;77.27
18581;DHT22;9420;50.876;7.012;2023-07-31T05:36:46;19.02;75.38
18581;DHT22;9420;50.876;7.012;2023-07-31T05:39:12;19.03;75.56
18581;DHT22;9420;50.876;7.012;2023-07-31T05:41:40;18.98;76.22
18581;DHT22;9420;50.876;7.012;2023-07-31T05:44:07;18.88;76.71
18581;DHT22;9420;50.876;7.012;2023-07-31T05:46:34;18.76;77.05
18581;DHT22;9420;50.876;7.012;2023-07-31T05:49:00;18.71;77.02
18581;DHT22;9420;50.876;7.012;2023-07-31T05:51:27;18.71;76.69
18581;DHT22;9420;50.876;7.012;2023-07-31T05:53:53;18.75;76.55
18581;DHT22;9420;50.876;7.012;2023-07-31T05:56:20;18.72;77.30
18581;DHT22;9420;50.876;7.012;2023-07-31T05:58:48;18.57;78.49
18581;DHT22;9420;50.876;7.012;2023-07-31T06:01:16;18.67;76.95
18581;DHT22;9420;50.876;7.012;2023-07-31T06:03:43;18.61;77.03
18581;DHT22;9420;50.876;7.012;2023-07-31T06:06:09;18.57;77.43
18581;DHT22;9420;50.876;7.012;2023-07-31T06:08:36;18.51;77.08
18581;DHT22;9420;50.876;7.012;2023-07-31T06:11:03;18.45;77.86
18581;DHT22;9420;50.876;7.012;2023-07-31T06:13:30;18.38;78.78
18581;DHT22;9420;50.876;7.012;2023-07-31T06:15:58;18.18;79.17
18581;DHT22;9420;50.876;7.012;2023-07-31T06:18:25;18.16;79.80
18581;DHT22;9420;50.876;7.012;2023-07-31T06:20:52;18.10;79.72
18581;DHT22;9420;50.876;7.012;2023-07-31T06:23:18;17.86;81.05
18581;DHT22;9420;50.876;7.012;2023-07-31T06:25:45;17.82;81.77
18581;DHT22;9420;50.876;7.012;2023-07-31T06:28:12;17.68;83.78
18581;DHT22;9420;50.876;7.012;2023-07-31T06:30:39;17.68;82.60
18581;DHT22;9420;50.876;7.012;2023-07-31T06:33:07;17.68;83.46
18581;DHT22;9420;50.876;7.012;2023-07-31T06:35:34;17.61;84.52
18581;DHT22;9420;50.876;7.012;2023-07-31T06:38:00;17.61;85.21
18581;DHT22;9420;50.876;7.012;2023-07-31T06:40:28;17.54;85.26
18581;DHT22;9420;50.876;7.012;2023-07-31T06:42:54;17.51;85.11
18581;DHT22;9420;50.876;7.012;2023-07-31T06:45:21;17.56;86.27
18581;DHT22;9420;50.876;7.012;2023-07-31T06:47:48;17.61;85.62
18581;DHT22;9420;50.876;7.012;2023-07-31T06:50:16;17.71;85.75
18581;DHT22;9420;50.876;7.012;2023-07-31T06:52:42;17.79;84.59
18581;DHT22;9420;50.876;7.012;2023-07-31T06:55:17;17.96;85.13
18581;DHT22;9420;50.876;7.012;2023-07-31T06:57:45;18.13;85.98
18581;DHT22;9420;50.876;7.012;2023-07-31T07:00:12;18.27;83.70
18581;DHT22;9420;50.876;7.012;2023-07-31T07:02:39;18.48;84.40
18581;DHT22;9420;50.876;7.012;2023-07-31T07:05:06;18.62;83.00
18581;DHT22;9420;50.876;7.012;2023-07-31T07:07:35;18.82;83.06
18581;DHT22;9420;50.876;7.012;2023-07-31T07:10:02;19.03;83.01
18581;DHT22;9420;50.876;7.012;2023-07-31T07:12:31;19.15;81.96
18581;DHT22;9420;50.876;7.012;2023-07-31T07:14:58;19.08;81.61
18581;DHT22;9420;50.876;7.012;2023-07-31T07:17:25;19.06;81.59
18581;DHT22;9420;50.876;7.012;2023-07-31T07:19:52;19.10;80.89
18581;DHT22;9420;50.876;7.012;2023-07-31T07:22:18;19.15;81.02
18581;DHT22;9420;50.876;7.012;2023-07-31T07:24:46;19.29;82.45
18581;DHT22;9420;50.876;7.012;2023-07-31T07:27:13;19.20;79.38
18581;DHT22;9420;50.876;7.012;2023-07-31T07:29:40;19.19;79.19
18581;DHT22;9420;50.876;7.012;2023-07-31T07:32:07;19.15;80.50
18581;DHT22;9420;50.876;7.012;2023-07-31T07:34:34;18.99;80.55
18581;DHT22;9420;50.876;7.012;2023-07-31T07:37:00;18.87;82.22
18581;DHT22;9420;50.876;7.012;2023-07-31T07:39:27;18.54;81.82
18581;DHT22;9420;50.876;7.012;2023-07-31T07:41:55;18.24;83.27
18581;DHT22;9420;50.876;7.012;2023-07-31T07:44:22;18.07;84.43
18581;DHT22;9420;50.876;7.012;2023-07-31T07:46:48;18.07;84.53
18581;DHT22;9420;50.876;7.012;2023-07-31T07:49:15;18.17;84.86
18581;DHT22;9420;50.876;7.012;2023-07-31T07:51:42;18.17;84.88
18581;DHT22;9420;50.876;7.012;2023-07-31T07:54:08;18.16;85.37
18581;DHT22;9420;50.876;7.012;2023-07-31T07:56:35;18.17;85.61
18581;DHT22;9420;50.876;7.012;2023-07-31T07:59:03;18.13;86.91
18581;DHT22;9420;50.876;7.012;2023-07-31T08:01:30;18.04;87.97
18581;DHT22;9420;50.876;7.012;2023-07-31T08:03:57;18.00;87.14
18581;DHT22;9420;50.876;7.012;2023-07-31T08:06:24;17.90;88.17
18581;DHT22;9420;50.876;7.012;2023-07-31T08:08:51;17.92;83.81
18581;DHT22;9420;50.876;7.012;2023-07-31T08:11:17;17.83;85.82
18581;DHT22;9420;50.876;7.012;2023-07-31T08:13:44;17.72;86.24
18581;DHT22;9420;50.876;7.012;2023-07-31T08:16:12;17.71;85.55
18581;DHT22;9420;50.876;7.012;2023-07-31T08:18:39;17.68;87.09
18581;DHT22;9420;50.876;7.012;2023-07-31T08:21:07;17.69;86.13
18581;DHT22;9420;50.876;7.012;2023-07-31T08:23:34;17.69;86.73
18581;DHT22;9420;50.876;7.012;2023-07-31T08:26:01;17.69;87.37
18581;DHT22;9420;50.876;7.012;2023-07-31T08:28:27;17.63;87.69
18581;DHT22;9420;50.876;7.012;2023-07-31T08:30:54;17.63;86.65
18581;DHT22;9420;50.876;7.012;2023-07-31T08:33:22;17.72;88.10
18581;DHT22;9420;50.876;7.012;2023-07-31T08:35:48;17.65;89.84
18581;DHT22;9420;50.876;7.012;2023-07-31T08:38:15;17.63;84.78
18581;DHT22;9420;50.876;7.012;2023-07-31T08:40:41;17.46;87.60
18581;DHT22;9420;50.876;7.012;2023-07-31T08:43:09;17.51;89.29
18581;DHT22;9420;50.876;7.012;2023-07-31T08:45:36;17.59;89.30
18581;DHT22;9420;50.876;7.012;2023-07-31T08:48:03;17.69;88.49
18581;DHT22;9420;50.876;7.012;2023-07-31T08:50:32;17.83;88.36
18581;DHT22;9420;50.876;7.012;2023-07-31T08:52:58;17.92;89.61
18581;DHT22;9420;50.876;7.012;2023-07-31T08:55:26;17.96;89.88
18581;DHT22;9420;50.876;7.012;2023-07-31T08:57:54;17.96;88.16
18581;DHT22;9420;50.876;7.012;2023-07-31T09:00:23;18.09;90.43
18581;DHT22;9420;50.876;7.012;2023-07-31T09:02:56;18.26;89.23
18581;DHT22;9420;50.876;7.012;2023-07-31T09:05:26;18.26;86.95
18581;DHT22;9420;50.876;7.012;2023-07-31T09:07:55;18.36;87.31
18581;DHT22;9420;50.876;7.012;2023-07-31T09:10:22;18.41;87.71
18581;DHT22;9420;50.876;7.012;2023-07-31T09:12:51;18.57;88.74
18581;DHT22;9420;50.876;7.012;2023-07-31T09:15:19;18.57;84.38
18581;DHT22;9420;50.876;7.012;2023-07-31T09:17:46;18.55;86.36
18581;DHT22;9420;50.876;7.012;2023-07-31T09:20:14;18.54;87.90
18581;DHT22;9420;50.876;7.012;2023-07-31T09:22:41;18.40;88.25
18581;DHT22;9420;50.876;7.012;2023-07-31T09:25:20;18.34;88.31
18581;DHT22;9420;50.876;7.012;2023-07-31T09:27:50;18.21;87.70
18581;DHT22;9420;50.876;7.012;2023-07-31T09:30:17;18.24;87.80
18581;DHT22;9420;50.876;7.012;2023-07-31T09:32:45;18.21;87.12
18581;DHT22;9420;50.876;7.012;2023-07-31T09:35:19;18.14;86.63
18581;DHT22;9420;50.876;7.012;2023-07-31T09:37:50;18.18;86.88
18581;DHT22;9420;50.876;7.012;2023-07-31T09:40:32;18.16;87.17
18581;DHT22;9420;50.876;7.012;2023-07-31T09:43:00;18.16;88.19
18581;DHT22;9420;50.876;7.012;2023-07-31T09:45:27;18.13;87.16
18581;DHT22;9420;50.876;7.012;2023-07-31T09:47:54;18.20;87.01
18581;DHT22;9420;50.876;7.012;2023-07-31T09:50:22;18.29;86.59
18581;DHT22;9420;50.876;7.012;2023-07-31T09:52:49;18.40;85.86
18581;DHT22;9420;50.876;7.012;2023-07-31T09:55:15;18.58;86.95
18581;DHT22;9420;50.876;7.012;2023-07-31T09:57:45;18.79;86.39
18581;DHT22;9420;50.876;7.012;2023-07-31T10:00:15;18.98;84.49
18581;DHT22;9420;50.876;7.012;2023-07-31T10:02:45;19.10;84.40
18581;DHT22;9420;50.876;7.012;2023-07-31T10:05:13;19.16;83.73
18581;DHT22;9420;50.876;7.012;2023-07-31T10:07:42;19.29;84.53
18581;DHT22;9420;50.876;7.012;2023-07-31T10:10:13;19.38;81.91
18581;DHT22;9420;50.876;7.012;2023-07-31T10:12:45;19.54;81.69
18581;DHT22;9420;50.876;7.012;2023-07-31T10:15:14;19.73;79.24
18581;DHT22;9420;50.876;7.012;2023-07-31T10:17:41;19.77;80.76
18581;DHT22;9420;50.876;7.012;2023-07-31T10:20:09;19.68;79.79
18581;DHT22;9420;50.876;7.012;2023-07-31T10:22:36;19.78;81.02
18581;DHT22;9420;50.876;7.012;2023-07-31T10:25:04;19.95;78.93
18581;DHT22;9420;50.876;7.012;2023-07-31T10:27:30;20.12;78.46
18581;DHT22;9420;50.876;7.012;2023-07-31T10:29:59;20.01;77.56
18581;DHT22;9420;50.876;7.012;2023-07-31T10:32:26;19.94;78.76
18581;DHT22;9420;50.876;7.012;2023-07-31T10:34:54;19.89;76.81
18581;DHT22;9420;50.876;7.012;2023-07-31T10:37:25;19.88;75.91
18581;DHT22;9420;50.876;7.012;2023-07-31T10:39:56;19.95;75.95
18581;DHT22;9420;50.876;7.012;2023-07-31T10:42:28;20.22;74.58
18581;DHT22;9420;50.876;7.012;2023-07-31T10:44:58;20.22;72.65
18581;DHT22;9420;50.876;7.012;2023-07-31T10:47:26;20.22;73.37
18581;DHT22;9420;50.876;7.012;2023-07-31T10:49:52;20.23;74.71
18581;DHT22;9420;50.876;7.012;2023-07-31T10:52:20;20.12;74.14
18581;DHT22;9420;50.876;7.012;2023-07-31T10:54:48;20.11;73.37
18581;DHT22;9420;50.876;7.012;2023-07-31T10:57:21;20.08;73.62
18581;DHT22;9420;50.876;7.012;2023-07-31T10:59:49;20.14;73.56
18581;DHT22;9420;50.876;7.012;2023-07-31T11:02:27;20.11;73.82
18581;DHT22;9420;50.876;7.012;2023-07-31T11:05:06;20.01;73.69
18581;DHT22;9420;50.876;7.012;2023-07-31T11:07:46;20.06;73.97
18581;DHT22;9420;50.876;7.012;2023-07-31T11:10:16;20.15;73.35
18581;DHT22;9420;50.876;7.012;2023-07-31T11:12:44;20.14;74.28
18581;DHT22;9420;50.876;7.012;2023-07-31T11:15:11;20.15;73.24
18581;DHT22;9420;50.876;7.012;2023-07-31T11:17:40;19.94;75.10
18581;DHT22;9420;50.876;7.012;2023-07-31T11:20:07;19.41;78.24
18581;DHT22;9420;50.876;7.012;2023-07-31T11:22:35;19.30;79.71
18581;DHT22;9420;50.876;7.012;2023-07-31T11:25:03;19.06;80.92
18581;DHT22;9420;50.876;7.012;2023-07-31T11:27:30;19.00;80.01
18581;DHT22;9420;50.876;7.012;2023-07-31T11:30:00;19.23;80.46
18581;DHT22;9420;50.876;7.012;2023-07-31T11:32:27;19.50;78.33
18581;DHT22;9420;50.876;7.012;2023-07-31T11:34:55;19.71;76.85
18581;DHT22;9420;50.876;7.012;2023-07-31T11:37:22;19.96;78.41
18581;DHT22;9420;50.876;7.012;2023-07-31T11:39:59;20.26;76.79
18581;DHT22;9420;50.876;7.012;2023-07-31T11:42:25;20.85;74.83
18581;DHT22;9420;50.876;7.012;2023-07-31T11:44:52;21.18;72.35
18581;DHT22;9420;50.876;7.012;2023-07-31T11:47:19;21.69;70.35
18581;DHT22;9420;50.876;7.012;2023-07-31T11:49:46;22.79;68.27
18581;DHT22;9420;50.876;7.012;2023-07-31T11:52:15;23.13;66.62
18581;DHT22;9420;50.876;7.012;2023-07-31T11:54:42;24.73;63.54
18581;DHT22;9420;50.876;7.012;2023-07-31T11:57:09;23.33;64.57
18581;DHT22;9420;50.876;7.012;2023-07-31T11:59:37;23.98;66.22
18581;DHT22;9420;50.876;7.012;2023-07-31T12:02:05;23.04;66.91
18581;DHT22;9420;50.876;7.012;2023-07-31T12:04:31;22.61;66.45
18581;DHT22;9420;50.876;7.012;2023-07-31T12:07:00;22.13;68.19
18581;DHT22;9420;50.876;7.012;2023-07-31T12:09:28;21.72;69.02
18581;DHT22;9420;50.876;7.012;2023-07-31T12:11:55;21.52;69.71
18581;DHT22;9420;50.876;7.012;2023-07-31T12:14:23;21.46;70.31
18581;DHT22;9420;50.876;7.012;2023-07-31T12:16:54;21.41;70.92
18581;DHT22;9420;50.876;7.012;2023-07-31T12:19:21;21.69;69.28
18581;DHT22;9420;50.876;7.012;2023-07-31T12:21:47;21.75;69.89
18581;DHT22;9420;50.876;7.012;2023-07-31T12:24:14;21.53;69.38
18581;DHT22;9420;50.876;7.012;2023-07-31T12:26:45;21.52;69.58
18581;DHT22;9420;50.876;7.012;2023-07-31T12:29:12;21.32;70.82
18581;DHT22;9420;50.876;7.012;2023-07-31T12:31:41;21.22;70.52
18581;DHT22;9420;50.876;7.012;2023-07-31T12:34:15;21.17;71.05
18581;DHT22;9420;50.876;7.012;2023-07-31T12:36:42;21.15;71.23
18581;DHT22;9420;50.876;7.012;2023-07-31T12:39:09;21.12;71.82
18581;DHT22;9420;50.876;7.012;2023-07-31T12:41:35;21.22;70.51
18581;DHT22;9420;50.876;7.012;2023-07-31T12:44:03;21.14;70.95
18581;DHT22;9420;50.876;7.012;2023-07-31T12:46:30;21.05;71.11
18581;DHT22;9420;50.876;7.012;2023-07-31T12:48:57;21.14;70.79
18581;DHT22;9420;50.876;7.012;2023-07-31T12:51:23;21.14;70.85
18581;DHT22;9420;50.876;7.012;2023-07-31T12:53:50;21.02;70.91
18581;DHT22;9420;50.876;7.012;2023-07-31T12:56:17;21.05;71.02
18581;DHT22;9420;50.876;7.012;2023-07-31T12:58:44;21.10;70.99
18581;DHT22;9420;50.876;7.012;2023-07-31T13:01:12;21.02;71.53
18581;DHT22;9420;50.876;7.012;2023-07-31T13:03:38;20.95;71.16
18581;DHT22;9420;50.876;7.012;2023-07-31T13:06:05;21.08;71.17
18581;DHT22;9420;50.876;7.012;2023-07-31T13:08:31;21.15;71.64
18581;DHT22;9420;50.876;7.012;2023-07-31T13:10:58;21.29;70.45
18581;DHT22;9420;50.876;7.012;2023-07-31T13:13:25;21.35;69.92
18581;DHT22;9420;50.876;7.012;2023-07-31T13:15:51;21.34;70.46
18581;DHT22;9420;50.876;7.012;2023-07-31T13:18:19;21.28;69.78
18581;DHT22;9420;50.876;7.012;2023-07-31T13:20:46;21.21;70.86
18581;DHT22;9420;50.876;7.012;2023-07-31T13:23:12;21.25;70.43
18581;DHT22;9420;50.876;7.012;2023-07-31T13:25:39;21.20;71.21
18581;DHT22;9420;50.876;7.012;2023-07-31T13:28:06;21.25;70.62
18581;DHT22;9420;50.876;7.012;2023-07-31T13:30:33;21.34;70.57
18581;DHT22;9420;50.876;7.012;2023-07-31T13:32:59;21.58;70.23
18581;DHT22;9420;50.876;7.012;2023-07-31T13:35:27;21.76;70.64
18581;DHT22;9420;50.876;7.012;2023-07-31T13:37:54;21.98;69.47
18581;DHT22;9420;50.876;7.012;2023-07-31T13:40:21;21.89;69.60
18581;DHT22;9420;50.876;7.012;2023-07-31T13:42:48;21.75;68.72
18581;DHT22;9420;50.876;7.012;2023-07-31T13:45:15;21.75;68.72
18581;DHT22;9420;50.876;7.012;2023-07-31T13:47:41;21.87;68.09
18581;DHT22;9420;50.876;7.012;2023-07-31T13:50:08;22.00;66.76
18581;DHT22;9420;50.876;7.012;2023-07-31T13:52:36;22.13;66.10
18581;DHT22;9420;50.876;7.012;2023-07-31T13:55:04;22.56;67.35
18581;DHT22;9420;50.876;7.012;2023-07-31T13:57:31;22.65;66.19
18581;DHT22;9420;50.876;7.012;2023-07-31T13:59:57;22.71;64.84
18581;DHT22;9420;50.876;7.012;2023-07-31T14:02:24;23.13;65.06
18581;DHT22;9420;50.876;7.012;2023-07-31T14:04:51;23.78;62.05
18581;DHT22;9420;50.876;7.012;2023-07-31T14:07:18;23.33;63.33
18581;DHT22;9420;50.876;7.012;2023-07-31T14:09:46;22.89;64.58
18581;DHT22;9420;50.876;7.012;2023-07-31T14:12:12;22.88;64.71
18581;DHT22;9420;50.876;7.012;2023-07-31T14:14:39;22.92;67.20
18581;DHT22;9420;50.876;7.012;2023-07-31T14:17:06;22.44;66.43
18581;DHT22;9420;50.876;7.012;2023-07-31T14:19:32;22.21;66.48
18581;DHT22;9420;50.876;7.012;2023-07-31T14:21:59;21.97;68.12
18581;DHT22;9420;50.876;7.012;2023-07-31T14:24:25;21.82;68.67
18581;DHT22;9420;50.876;7.012;2023-07-31T14:26:53;21.76;68.49
18581;DHT22;9420;50.876;7.012;2023-07-31T14:29:22;21.49;68.91
18581;DHT22;9420;50.876;7.012;2023-07-31T14:31:49;21.59;68.15
18581;DHT22;9420;50.876;7.012;2023-07-31T14:34:16;21.79;68.17
18581;DHT22;9420;50.876;7.012;2023-07-31T14:36:43;21.96;66.41
18581;DHT22;9420;50.876;7.012;2023-07-31T14:39:11;22.14;67.44
18581;DHT22;9420;50.876;7.012;2023-07-31T14:41:38;22.11;66.74
18581;DHT22;9420;50.876;7.012;2023-07-31T14:44:06;22.00;67.42
18581;DHT22;9420;50.876;7.012;2023-07-31T14:46:32;21.89;67.80
18581;DHT22;9420;50.876;7.012;2023-07-31T14:48:59;21.73;66.42
18581;DHT22;9420;50.876;7.012;2023-07-31T14:51:26;21.67;66.93
18581;DHT22;9420;50.876;7.012;2023-07-31T14:53:52;21.60;67.93
18581;DHT22;9420;50.876;7.012;2023-07-31T14:56:19;21.56;67.62
18581;DHT22;9420;50.876;7.012;2023-07-31T14:58:46;21.41;68.51
18581;DHT22;9420;50.876;7.012;2023-07-31T15:01:13;21.34;68.88
18581;DHT22;9420;50.876;7.012;2023-07-31T15:03:40;21.27;69.16
18581;DHT22;9420;50.876;7.012;2023-07-31T15:06:07;21.21;68.64
18581;DHT22;9420;50.876;7.012;2023-07-31T15:08:34;21.21;69.33
18581;DHT22;9420;50.876;7.012;2023-07-31T15:11:01;21.08;69.61
18581;DHT22;9420;50.876;7.012;2023-07-31T15:13:28;21.18;69.61
18581;DHT22;9420;50.876;7.012;2023-07-31T15:15:55;21.22;69.42
18581;DHT22;9420;50.876;7.012;2023-07-31T15:18:24;21.18;68.22
18581;DHT22;9420;50.876;7.012;2023-07-31T15:20:51;21.31;67.94
18581;DHT22;9420;50.876;7.012;2023-07-31T15:23:18;21.39;67.58
18581;DHT22;9420;50.876;7.012;2023-07-31T15:25:44;21.32;68.08
18581;DHT22;9420;50.876;7.012;2023-07-31T15:28:11;21.27;67.86
18581;DHT22;9420;50.876;7.012;2023-07-31T15:30:38;21.35;68.53
18581;DHT22;9420;50.876;7.012;2023-07-31T15:33:04;21.35;68.70
18581;DHT22;9420;50.876;7.012;2023-07-31T15:35:32;21.20;68.21
18581;DHT22;9420;50.876;7.012;2023-07-31T15:37:59;21.18;68.38
18581;DHT22;9420;50.876;7.012;2023-07-31T15:40:25;21.24;68.98
18581;DHT22;9420;50.876;7.012;2023-07-31T15:42:52;21.14;68.28
18581;DHT22;9420;50.876;7.012;2023-07-31T15:45:19;21.02;68.93
18581;DHT22;9420;50.876;7.012;2023-07-31T15:47:45;21.00;68.95